Time;durP1;ratioP1;P1;durP2;ratioP2;P2;SDS_P1;SDS_P2;PMS_P1;PMS_P2;Temp;Humidity;BMP_temperature;BMP_pressure;BME280_temperature;BME280_humidity;BME280_pressure;Samples;Min_cycle;Max_cycle;Signal;HPM_P1;HPM_P2
2023/10/08 00:01:13;;;;;;;8.63;8.07;;;16.60;53.30;;;;;;4881963;29;21308;-82
2023/10/08 00:03:48;;;;;;;8.60;7.90;;;16.60;53.00;;;;;;4874612;29;20472;-81
2023/10/08 00:06:19;;;;;;;8.10;7.70;;;16.60;54.20;;;;;;4875613;29;20497;-81
2023/10/08 00:08:48;;;;;;;8.67;8.07;;;16.60;54.20;;;;;;4873438;29;20493;-81
2023/10/08 00:11:16;;;;;;;9.27;8.57;;;16.60;54.10;;;;;;4880901;29;20471;-82
2023/10/08 00:13:48;;;;;;;9.07;8.47;;;16.50;54.70;;;;;;4881055;29;20559;-81
2023/10/08 00:16:17;;;;;;;8.07;7.50;;;16.50;54.10;;;;;;4883508;29;20984;-82
2023/10/08 00:18:50;;;;;;;8.30;7.60;;;16.50;53.90;;;;;;4877407;29;20539;-82
2023/10/08 00:21:26;;;;;;;9.30;8.60;;;16.40;53.90;;;;;;4870740;29;20522;-82
2023/10/08 00:23:58;;;;;;;8.37;7.77;;;16.40;54.20;;;;;;4884426;29;20457;-83
2023/10/08 00:26:29;;;;;;;8.23;7.63;;;16.60;51.10;;;;;;4873026;29;23069;-83
2023/10/08 00:29:06;;;;;;;8.47;7.87;;;16.70;50.90;;;;;;4874997;29;20479;-82
2023/10/08 00:31:40;;;;;;;7.47;6.97;;;16.80;50.90;;;;;;4876749;29;20468;-83
2023/10/08 00:34:12;;;;;;;7.27;6.77;;;16.90;50.80;;;;;;4877502;29;20455;-83
2023/10/08 00:36:41;;;;;;;7.80;7.30;;;16.90;66.00;;;;;;4875193;29;21043;-83
2023/10/08 00:39:13;;;;;;;7.00;6.43;;;17.00;50.40;;;;;;4876432;29;20483;-83
2023/10/08 00:41:43;;;;;;;7.40;7.00;;;17.10;50.60;;;;;;4879067;29;20468;-84
2023/10/08 00:44:22;;;;;;;7.27;6.80;;;17.10;50.10;;;;;;4874907;29;20464;-84
2023/10/08 00:46:50;;;;;;;6.83;6.33;;;17.10;50.30;;;;;;4890116;29;20497;-83
2023/10/08 00:49:35;;;;;;;7.87;7.27;;;17.10;49.90;;;;;;4876386;29;20484;-83
2023/10/08 00:52:26;;;;;;;6.73;6.33;;;17.20;50.20;;;;;;4872074;29;20470;-84
2023/10/08 00:55:09;;;;;;;7.40;6.70;;;17.10;49.00;;;;;;4875173;29;20994;-84
2023/10/08 00:57:42;;;;;;;7.00;6.50;;;17.20;49.30;;;;;;4874513;29;20483;-83
2023/10/08 01:00:17;;;;;;;10.40;6.47;;;17.30;49.70;;;;;;4874004;29;20467;-83
2023/10/08 01:02:48;;;;;;;8.20;7.23;;;17.20;48.10;;;;;;4877284;29;20467;-83
2023/10/08 01:05:23;;;;;;;6.73;6.13;;;17.20;48.70;;;;;;4874284;29;20464;-83
2023/10/08 01:07:52;;;;;;;6.47;5.97;;;17.20;49.70;;;;;;4863956;29;20498;-84
2023/10/08 01:10:20;;;;;;;5.23;5.03;;;17.30;48.00;;;;;;4872803;29;21122;-83
2023/10/08 01:13:05;;;;;;;7.00;6.40;;;17.20;48.00;;;;;;4875916;29;20468;-83
2023/10/08 01:15:37;;;;;;;7.00;6.40;;;17.30;47.70;;;;;;4874864;29;20452;-82
2023/10/08 01:18:06;;;;;;;7.10;6.50;;;17.30;47.80;;;;;;4879492;29;20483;-84
2023/10/08 01:20:36;;;;;;;5.83;5.43;;;17.30;47.70;;;;;;4876551;29;20920;-84
2023/10/08 01:23:13;;;;;;;6.03;5.63;;;17.30;47.20;;;;;;4879129;29;20825;-85
2023/10/08 01:25:42;;;;;;;7.77;6.90;;;17.30;47.80;;;;;;4875616;29;20784;-84
2023/10/08 01:28:17;;;;;;;6.87;6.27;;;17.30;47.70;;;;;;4893566;29;20480;-85
2023/10/08 01:30:46;;;;;;;6.23;5.83;;;17.30;47.90;;;;;;4877044;29;20471;-84
2023/10/08 01:33:17;;;;;;;6.77;6.20;;;17.30;47.50;;;;;;4883293;29;20473;-84
2023/10/08 01:35:46;;;;;;;6.13;5.53;;;17.30;47.50;;;;;;4876659;29;20468;-84
2023/10/08 01:38:22;;;;;;;6.20;5.80;;;17.30;47.60;;;;;;4888179;29;20993;-82
2023/10/08 01:40:51;;;;;;;5.57;5.27;;;17.20;47.20;;;;;;4877658;29;20541;-83
2023/10/08 01:43:20;;;;;;;6.50;5.90;;;17.30;46.60;;;;;;4879418;29;20551;-82
2023/10/08 01:45:51;;;;;;;5.80;5.40;;;17.20;47.20;;;;;;4879493;29;20535;-82
2023/10/08 01:48:26;;;;;;;6.20;5.80;;;17.10;46.90;;;;;;4883484;29;20527;-82
2023/10/08 01:50:55;;;;;;;6.87;6.00;;;17.10;46.30;;;;;;4879413;29;20474;-82
2023/10/08 01:53:26;;;;;;;6.87;6.07;;;17.00;47.10;;;;;;4883686;29;20459;-82
2023/10/08 01:55:55;;;;;;;6.63;6.03;;;16.90;48.00;;;;;;4881313;29;20547;-81
2023/10/08 01:58:23;;;;;;;6.03;5.53;;;16.80;46.00;;;;;;4884257;29;20470;-82
2023/10/08 02:00:54;;;;;;;6.27;5.80;;;16.90;45.30;;;;;;4880556;29;20504;-82
2023/10/08 02:03:22;;;;;;;6.30;5.73;;;16.80;46.80;;;;;;4882639;29;20468;-82
2023/10/08 02:05:53;;;;;;;6.30;5.80;;;16.80;47.20;;;;;;4893782;29;20455;-81
2023/10/08 02:08:21;;;;;;;5.90;5.50;;;16.80;46.00;;;;;;4881048;29;20491;-83
2023/10/08 02:10:52;;;;;;;6.33;5.80;;;16.80;48.20;;;;;;4887724;29;20502;-83
2023/10/08 02:13:20;;;;;;;7.50;6.00;;;16.70;46.80;;;;;;4880737;29;20470;-82
2023/10/08 02:15:51;;;;;;;6.40;5.90;;;16.60;48.00;;;;;;4884648;29;20562;-82
2023/10/08 02:18:20;;;;;;;6.20;5.80;;;16.50;47.90;;;;;;4882443;29;20490;-82
2023/10/08 02:20:48;;;;;;;6.73;6.10;;;16.60;47.80;;;;;;4889019;29;20478;-82
2023/10/08 02:23:17;;;;;;;6.73;6.20;;;16.50;48.90;;;;;;4881591;29;20547;-83
2023/10/08 02:25:47;;;;;;;7.43;6.83;;;16.30;48.20;;;;;;4880459;29;20520;-82
2023/10/08 02:28:20;;;;;;;7.40;6.77;;;16.30;47.90;;;;;;4877714;29;20491;-81
2023/10/08 02:30:48;;;;;;;7.40;6.80;;;16.30;48.00;;;;;;4882707;29;21086;-83
2023/10/08 02:33:16;;;;;;;7.00;6.33;;;16.30;48.10;;;;;;4878721;29;20464;-82
2023/10/08 02:35:46;;;;;;;7.07;6.53;;;16.30;49.30;;;;;;4877926;29;21087;-82
2023/10/08 02:38:21;;;;;;;7.50;6.90;;;16.20;49.80;;;;;;4879540;29;20478;-82
2023/10/08 02:40:50;;;;;;;7.40;6.90;;;16.20;50.70;;;;;;4882526;29;20475;-82
2023/10/08 02:43:20;;;;;;;7.73;6.93;;;16.10;50.00;;;;;;4878703;29;20552;-81
2023/10/08 02:45:49;;;;;;;7.60;7.10;;;16.10;64.70;;;;;;4880263;29;20471;-81
2023/10/08 02:48:20;;;;;;;7.00;6.50;;;16.10;64.50;;;;;;4883339;29;21021;-82
2023/10/08 02:50:49;;;;;;;7.60;7.00;;;16.00;49.60;;;;;;4883078;29;20459;-83
2023/10/08 02:53:20;;;;;;;7.20;6.70;;;16.00;49.30;;;;;;4883097;29;20476;-83
2023/10/08 02:55:49;;;;;;;7.60;7.00;;;15.90;48.50;;;;;;4874279;29;20494;-83
2023/10/08 02:58:18;;;;;;;7.33;6.70;;;15.70;47.40;;;;;;4879168;29;20515;-82
2023/10/08 03:00:50;;;;;;;6.43;6.13;;;15.80;48.50;;;;;;4880290;29;20472;-82
2023/10/08 03:03:19;;;;;;;6.70;6.30;;;15.80;48.40;;;;;;4883957;29;20484;-83
2023/10/08 03:05:49;;;;;;;7.53;6.90;;;15.80;48.10;;;;;;4875163;29;20464;-82
2023/10/08 03:08:20;;;;;;;7.00;6.60;;;15.80;49.10;;;;;;4879744;29;20484;-82
2023/10/08 03:10:55;;;;;;;7.33;6.70;;;15.80;48.30;;;;;;4878343;29;20532;-84
2023/10/08 03:13:26;;;;;;;8.03;7.13;;;15.70;48.90;;;;;;4878500;29;20472;-82
2023/10/08 03:16:08;;;;;;;6.60;6.10;;;15.80;50.10;;;;;;4874425;29;20470;-83
2023/10/08 03:18:42;;;;;;;7.10;6.50;;;15.70;49.00;;;;;;4871472;29;20521;-83
2023/10/08 03:21:20;;;;;;;6.87;6.40;;;15.70;49.80;;;;;;4880697;29;20550;-83
2023/10/08 03:23:53;;;;;;;8.17;7.40;;;15.70;51.90;;;;;;4877761;29;20464;-82
2023/10/08 03:26:33;;;;;;;11.47;7.50;;;15.60;51.60;;;;;;4877353;29;20542;-82
2023/10/08 03:29:07;;;;;;;7.33;6.67;;;15.60;53.00;;;;;;4878812;29;20475;-82
2023/10/08 03:31:50;;;;;;;6.83;6.40;;;15.50;53.50;;;;;;4879127;29;20444;-82
2023/10/08 03:34:19;;;;;;;7.37;6.70;;;15.50;54.70;;;;;;4877872;29;20463;-83
2023/10/08 03:36:50;;;;;;;6.63;6.13;;;15.50;55.00;;;;;;4879181;29;20487;-83
2023/10/08 03:39:19;;;;;;;7.53;7.00;;;15.40;55.00;;;;;;4881138;29;20744;-83
2023/10/08 03:41:59;;;;;;;6.87;6.47;;;15.40;56.70;;;;;;4880366;29;20489;-82
2023/10/08 03:44:29;;;;;;;6.13;5.73;;;15.40;55.60;;;;;;4874447;29;20463;-82
2023/10/08 03:46:59;;;;;;;6.70;6.17;;;15.40;57.90;;;;;;4879811;29;20531;-83
2023/10/08 03:49:31;;;;;;;6.87;6.33;;;15.40;57.00;;;;;;4880489;29;20486;-82
2023/10/08 03:52:00;;;;;;;6.10;5.70;;;15.40;56.00;;;;;;4878098;29;20482;-82
2023/10/08 03:54:34;;;;;;;6.43;5.97;;;15.40;54.30;;;;;;4877858;29;20969;-83
2023/10/08 03:57:04;;;;;;;6.50;5.90;;;15.40;56.00;;;;;;4877762;29;20462;-82
2023/10/08 03:59:33;;;;;;;6.77;6.30;;;15.40;58.20;;;;;;4874027;29;20483;-82
2023/10/08 04:02:13;;;;;;;7.30;6.60;;;15.40;59.80;;;;;;4878578;29;20870;-83
2023/10/08 04:04:51;;;;;;;6.80;6.37;;;15.30;58.40;;;;;;4875599;29;20514;-83
2023/10/08 04:07:28;;;;;;;6.50;6.10;;;15.40;60.50;;;;;;4877657;29;20487;-83
2023/10/08 04:10:29;;;;;;;7.90;7.13;;;15.40;59.90;;;;;;4896545;29;20479;-83
2023/10/08 04:12:55;;;;;;;7.53;6.87;;;15.40;59.70;;;;;;4877509;29;20534;-82
2023/10/08 04:15:23;;;;;;;6.97;6.33;;;15.40;62.40;;;;;;4880707;29;20461;-82
2023/10/08 04:17:53;;;;;;;6.23;5.90;;;15.30;60.90;;;;;;4875578;29;20474;-83
2023/10/08 04:20:38;;;;;;;7.00;6.47;;;15.30;80.90;;;;;;4881187;29;20456;-83
2023/10/08 04:23:13;;;;;;;7.00;6.37;;;15.20;59.90;;;;;;4874318;29;20887;-81
2023/10/08 04:25:43;;;;;;;7.20;6.50;;;15.40;57.20;;;;;;4878304;29;20982;-81
2023/10/08 04:28:14;;;;;;;6.60;5.67;;;15.50;54.50;;;;;;4878585;29;21040;-82
2023/10/08 04:30:43;;;;;;;6.10;5.30;;;15.70;54.00;;;;;;4880656;29;20456;-83
2023/10/08 04:33:13;;;;;;;6.40;5.50;;;15.70;54.40;;;;;;4878602;29;20498;-82
2023/10/08 04:35:48;;;;;;;6.63;6.00;;;15.60;54.20;;;;;;4875142;29;20462;-82
2023/10/08 04:38:18;;;;;;;5.40;5.10;;;15.60;55.70;;;;;;4878420;29;20484;-82
2023/10/08 04:40:51;;;;;;;5.70;5.30;;;15.50;55.30;;;;;;4879864;29;20985;-83
2023/10/08 04:43:24;;;;;;;5.97;5.60;;;15.60;55.80;;;;;;4876161;29;20459;-83
2023/10/08 04:45:52;;;;;;;6.77;6.00;;;15.50;56.00;;;;;;4842734;29;1087739;-83
2023/10/08 04:48:23;;;;;;;5.87;5.47;;;15.40;57.10;;;;;;4883867;29;20236;-82
2023/10/08 04:50:58;;;;;;;6.17;5.60;;;15.60;54.90;;;;;;4880400;29;20467;-82
2023/10/08 04:53:35;;;;;;;6.30;5.37;;;15.60;56.80;;;;;;4880459;29;20467;-82
2023/10/08 04:56:13;;;;;;;5.90;5.40;;;15.70;54.20;;;;;;4876395;29;20569;-82
2023/10/08 04:58:46;;;;;;;5.67;5.27;;;15.80;53.90;;;;;;4881665;29;20566;-82
2023/10/08 05:01:27;;;;;;;5.90;5.50;;;15.90;53.90;;;;;;4876455;29;20600;-82
2023/10/08 05:04:23;;;;;;;6.30;5.77;;;15.90;52.60;;;;;;4882751;29;20524;-82
2023/10/08 05:07:17;;;;;;;6.47;5.77;;;15.90;54.40;;;;;;4875905;29;20976;-82
2023/10/08 05:09:52;;;;;;;5.97;5.57;;;15.80;55.60;;;;;;4879722;29;20538;-82
2023/10/08 05:12:34;;;;;;;6.03;5.60;;;15.80;59.40;;;;;;4881079;29;20450;-83
2023/10/08 05:18:08;;;;;;;7.63;6.83;;;15.50;62.00;;;;;;4873335;29;20543;-82
2023/10/08 05:20:58;;;;;;;6.73;6.30;;;15.40;63.20;;;;;;4879508;29;20468;-83
2023/10/08 05:26:21;;;;;;;6.43;5.87;;;15.30;66.90;;;;;;4879924;29;20452;-81
2023/10/08 05:29:00;;;;;;;6.30;5.90;;;15.30;69.20;;;;;;4874109;29;20475;-83
2023/10/08 05:31:53;;;;;;;6.33;5.73;;;15.20;70.40;;;;;;4876349;29;20451;-83
2023/10/08 05:34:32;;;;;;;6.83;6.30;;;15.20;72.10;;;;;;4874439;29;21318;-83
2023/10/08 05:37:31;;;;;;;7.13;6.63;;;15.10;72.70;;;;;;4877915;29;20456;-83
2023/10/08 05:40:20;;;;;;;8.87;5.80;;;15.10;72.50;;;;;;4879525;29;20479;-83
2023/10/08 05:43:00;;;;;;;6.90;6.30;;;15.00;73.80;;;;;;4874179;29;20804;-83
2023/10/08 05:45:30;;;;;;;9.43;5.90;;;15.00;71.00;;;;;;4876964;29;20992;-83
2023/10/08 05:48:13;;;;;;;8.37;7.47;;;15.00;75.50;;;;;;4881653;29;20479;-82
2023/10/08 05:50:54;;;;;;;6.40;6.00;;;14.90;72.80;;;;;;4875679;29;20460;-83
2023/10/08 05:53:43;;;;;;;8.30;7.60;;;14.90;76.50;;;;;;4876993;29;20903;-83
2023/10/08 05:59:17;;;;;;;7.30;6.80;;;14.90;77.60;;;;;;4883878;29;21453;-84
2023/10/08 06:01:46;;;;;;;7.90;7.30;;;15.00;79.80;;;;;;4893501;29;21080;-83
2023/10/08 06:04:42;;;;;;;8.10;7.50;;;14.90;80.30;;;;;;4873556;29;20473;-82
2023/10/08 06:07:20;;;;;;;7.70;6.90;;;15.00;81.20;;;;;;4874149;29;20471;-82
2023/10/08 06:10:02;;;;;;;6.80;6.30;;;15.00;80.90;;;;;;4881684;29;20483;-84
2023/10/08 06:12:44;;;;;;;7.20;6.70;;;15.00;84.50;;;;;;4885029;29;20543;-83
2023/10/08 06:15:13;;;;;;;9.63;8.73;;;15.00;87.30;;;;;;4877195;29;21053;-82
2023/10/08 06:17:56;;;;;;;9.07;8.30;;;14.90;88.50;;;;;;4882340;29;20511;-82
2023/10/08 06:20:26;;;;;;;7.40;6.80;;;15.00;90.80;;;;;;4877672;29;21051;-82
2023/10/08 06:23:00;;;;;;;7.50;6.80;;;15.00;88.00;;;;;;4877613;29;20487;-81
2023/10/08 06:25:30;;;;;;;8.10;7.30;;;15.00;90.60;;;;;;4882342;29;20456;-81
2023/10/08 06:27:58;;;;;;;7.27;6.77;;;15.10;91.30;;;;;;4880121;29;20488;-81
2023/10/08 06:30:29;;;;;;;7.47;6.93;;;15.10;94.00;;;;;;4882067;29;20868;-81
2023/10/08 06:32:58;;;;;;;7.37;6.77;;;15.10;93.60;;;;;;4878542;29;20527;-80
2023/10/08 06:35:28;;;;;;;8.00;7.40;;;15.10;95.50;;;;;;4875211;29;20462;-81
2023/10/08 06:37:59;;;;;;;7.63;6.97;;;15.20;95.60;;;;;;4876974;29;20572;-82
2023/10/08 06:40:43;;;;;;;7.43;6.80;;;15.20;91.40;;;;;;4875049;29;20802;-77
2023/10/08 06:43:14;;;;;;;7.27;6.70;;;15.20;90.50;;;;;;4879912;29;20199;-75
2023/10/08 06:45:43;;;;;;;6.60;6.00;;;15.40;90.80;;;;;;4877059;29;20475;-77
2023/10/08 06:48:18;;;;;;;6.80;6.50;;;15.50;93.50;;;;;;4879265;29;20488;-77
2023/10/08 06:50:47;;;;;;;7.47;6.77;;;15.50;94.70;;;;;;4878978;29;20507;-77
2023/10/08 06:53:17;;;;;;;7.20;6.70;;;15.40;97.10;;;;;;4882006;29;20480;-82
2023/10/08 06:55:48;;;;;;;7.53;6.97;;;15.40;96.60;;;;;;4879909;29;20449;-83
2023/10/08 06:58:17;;;;;;;7.20;6.60;;;15.40;94.40;;;;;;4878903;29;20603;-82
2023/10/08 07:00:48;;;;;;;7.13;6.30;;;15.60;91.30;;;;;;4877692;29;20226;-82
2023/10/08 07:03:18;;;;;;;7.17;6.60;;;15.90;92.20;;;;;;4874051;29;20464;-82
2023/10/08 07:05:57;;;;;;;7.60;7.00;;;16.10;91.40;;;;;;4875822;29;20545;-84
2023/10/08 07:08:29;;;;;;;7.80;7.20;;;16.20;95.40;;;;;;4878532;29;20480;-83
2023/10/08 07:10:58;;;;;;;6.77;6.37;;;16.30;93.90;;;;;;4877840;29;20560;-83
2023/10/08 07:13:29;;;;;;;7.30;6.73;;;16.30;93.90;;;;;;4876825;29;21055;-82
2023/10/08 07:16:00;;;;;;;8.03;7.43;;;16.40;94.20;;;;;;4856983;29;21030;-82
2023/10/08 07:18:31;;;;;;;8.77;7.90;;;16.50;96.90;;;;;;4866134;29;20894;-81
2023/10/08 07:21:02;;;;;;;8.60;7.90;;;16.50;98.70;;;;;;4865408;29;20476;-84
2023/10/08 07:23:33;;;;;;;9.40;8.60;;;16.50;99.10;;;;;;4879065;29;20505;-83
2023/10/08 07:26:10;;;;;;;7.87;7.30;;;16.60;99.10;;;;;;4875666;29;20478;-84
2023/10/08 07:28:40;;;;;;;9.23;8.43;;;16.60;99.10;;;;;;4881952;29;20478;-82
2023/10/08 07:31:15;;;;;;;7.93;7.43;;;16.70;99.10;;;;;;4896927;29;20486;-85
2023/10/08 07:33:44;;;;;;;8.70;8.10;;;16.90;99.30;;;;;;4889794;29;20463;-87
2023/10/08 07:36:18;;;;;;;8.83;8.10;;;17.10;99.50;;;;;;4875789;29;20464;-84
2023/10/08 07:38:46;;;;;;;8.83;8.23;;;17.30;99.60;;;;;;4883353;29;20494;-85
2023/10/08 07:41:15;;;;;;;8.00;7.50;;;17.40;99.90;;;;;;4880149;29;20464;-86
2023/10/08 07:43:53;;;;;;;8.60;8.10;;;17.50;99.90;;;;;;4878113;29;21042;-84
2023/10/08 07:46:21;;;;;;;7.83;7.43;;;17.50;99.90;;;;;;4883225;29;20477;-85
2023/10/08 07:48:50;;;;;;;8.80;8.00;;;17.60;99.90;;;;;;4878554;29;21383;-84
2023/10/08 07:51:21;;;;;;;8.87;8.27;;;17.50;99.90;;;;;;4878416;29;20458;-86
2023/10/08 07:53:54;;;;;;;8.73;8.07;;;17.50;99.90;;;;;;4873990;29;20464;-84
2023/10/08 07:56:23;;;;;;;9.00;8.40;;;17.40;99.90;;;;;;4890492;29;20495;-84
2023/10/08 07:58:55;;;;;;;8.40;7.80;;;17.40;99.90;;;;;;4880957;29;20568;-85
2023/10/08 08:01:25;;;;;;;8.65;8.05;;;17.40;99.90;;;;;;4874834;29;20460;-83
2023/10/08 08:03:54;;;;;;;9.10;8.27;;;17.30;99.90;;;;;;4879958;29;20354;-84
2023/10/08 08:06:22;;;;;;;8.70;8.10;;;17.40;99.90;;;;;;4878166;29;20987;-85
2023/10/08 08:08:51;;;;;;;8.07;7.67;;;17.40;99.90;;;;;;4880082;29;20535;-84
2023/10/08 08:11:24;;;;;;;8.90;8.00;;;17.50;99.90;;;;;;4863484;29;20490;-86
2023/10/08 08:13:54;;;;;;;8.53;7.80;;;17.50;99.90;;;;;;4876394;29;20543;-86
2023/10/08 08:16:22;;;;;;;8.93;8.03;;;17.60;99.90;;;;;;4866431;29;20586;-86
2023/10/08 08:18:55;;;;;;;8.57;8.07;;;17.70;99.90;;;;;;4876528;29;20845;-84
2023/10/08 08:21:23;;;;;;;11.40;10.20;;;17.70;99.90;;;;;;4879504;29;20548;-84
2023/10/08 08:23:52;;;;;;;10.47;9.67;;;17.90;99.90;;;;;;4876203;29;20464;-83
2023/10/08 08:26:29;;;;;;;9.60;8.90;;;18.30;99.90;;;;;;4873192;29;21062;-84
2023/10/08 08:29:01;;;;;;;10.43;9.03;;;18.90;99.90;;;;;;4881975;29;20535;-84
2023/10/08 08:31:31;;;;;;;8.73;8.13;;;19.10;99.90;;;;;;4878114;29;20456;-83
2023/10/08 08:34:02;;;;;;;8.43;7.77;;;19.40;99.90;;;;;;4875342;29;20476;-82
2023/10/08 08:36:32;;;;;;;8.77;8.27;;;19.50;99.90;;;;;;4881249;29;21045;-83
2023/10/08 08:39:04;;;;;;;9.03;8.20;;;19.50;99.90;;;;;;4879964;29;20488;-83
2023/10/08 08:41:35;;;;;;;8.50;8.10;;;19.60;99.90;;;;;;4870559;29;20509;-83
2023/10/08 08:44:07;;;;;;;9.27;8.60;;;19.70;99.90;;;;;;4868892;29;20586;-82
2023/10/08 08:46:37;;;;;;;8.63;7.90;;;20.20;99.90;;;;;;4874918;29;20471;-84
2023/10/08 08:49:08;;;;;;;9.50;8.80;;;20.70;99.90;;;;;;4876506;29;20487;-83
2023/10/08 08:51:37;;;;;;;8.87;8.23;;;20.80;99.90;;;;;;4879857;29;20475;-83
2023/10/08 08:54:07;;;;;;;9.03;8.43;;;20.90;99.90;;;;;;4876742;29;20455;-83
2023/10/08 08:56:36;;;;;;;9.60;8.80;;;20.90;99.90;;;;;;4879206;29;20869;-84
2023/10/08 08:59:07;;;;;;;8.07;7.57;;;20.70;99.90;;;;;;4879274;29;20473;-85
2023/10/08 09:01:36;;;;;;;9.13;8.33;;;20.60;99.90;;;;;;4881896;29;20803;-85
2023/10/08 09:04:05;;;;;;;8.60;8.03;;;20.40;99.90;;;;;;4881963;29;20468;-80
2023/10/08 09:06:37;;;;;;;10.33;9.33;;;20.30;99.90;;;;;;4878595;29;20455;-82
2023/10/08 09:09:21;;;;;;;8.70;8.30;;;20.30;99.90;;;;;;4880042;29;20483;-84
2023/10/08 09:11:52;;;;;;;9.53;8.93;;;20.40;99.90;;;;;;4878603;29;20476;-85
2023/10/08 09:14:25;;;;;;;8.73;8.10;;;20.40;99.90;;;;;;4876080;29;20969;-84
2023/10/08 09:16:54;;;;;;;9.23;8.63;;;20.40;99.90;;;;;;4896372;29;21377;-84
2023/10/08 09:19:24;;;;;;;9.67;8.67;;;20.40;99.90;;;;;;4877010;29;20476;-84
2023/10/08 09:22:04;;;;;;;9.03;8.43;;;20.30;99.90;;;;;;4884574;29;20478;-83
2023/10/08 09:24:36;;;;;;;8.77;8.20;;;20.40;99.90;;;;;;4877940;29;20579;-85
2023/10/08 09:27:05;;;;;;;8.40;7.63;;;20.50;99.90;;;;;;4876886;29;20455;-84
2023/10/08 09:29:39;;;;;;;8.90;8.27;;;20.90;99.90;;;;;;4860858;29;20480;-83
2023/10/08 09:32:10;;;;;;;12.10;10.90;;;21.80;99.90;;;;;;4868311;29;21556;-84
2023/10/08 09:34:38;;;;;;;9.67;8.87;;;23.10;99.90;;;;;;4879282;29;21533;-84
2023/10/08 09:37:07;;;;;;;7.80;7.13;;;23.80;99.90;;;;;;4872864;29;20475;-84
2023/10/08 09:39:37;;;;;;;8.37;7.73;;;24.30;99.90;;;;;;4876441;29;20493;-84
2023/10/08 09:42:06;;;;;;;8.20;7.37;;;24.20;99.90;;;;;;4875049;29;21066;-84
2023/10/08 09:44:37;;;;;;;9.33;8.40;;;23.80;99.90;;;;;;4877058;29;21333;-85
2023/10/08 09:47:07;;;;;;;8.30;7.70;;;23.20;99.90;;;;;;4877305;29;20469;-85
2023/10/08 09:49:42;;;;;;;9.43;8.70;;;22.80;99.90;;;;;;4876093;29;20492;-85
2023/10/08 09:52:12;;;;;;;8.70;8.13;;;22.50;99.90;;;;;;4878150;29;20509;-84
2023/10/08 09:54:47;;;;;;;9.30;8.60;;;22.20;99.90;;;;;;4875568;29;20452;-85
2023/10/08 09:57:19;;;;;;;8.50;7.57;;;21.90;99.90;;;;;;4888378;29;20465;-82
2023/10/08 09:59:49;;;;;;;8.60;8.03;;;21.80;99.90;;;;;;4887897;29;20550;-83
2023/10/08 10:02:21;;;;;;;8.20;7.60;;;21.60;99.90;;;;;;4889994;29;20457;-83
2023/10/08 10:04:52;;;;;;;8.97;8.47;;;21.50;99.90;;;;;;4882137;29;20467;-83
2023/10/08 10:07:21;;;;;;;8.87;8.27;;;21.50;99.90;;;;;;4887502;29;20461;-81
2023/10/08 10:09:53;;;;;;;9.17;8.37;;;21.40;99.90;;;;;;4883897;29;20462;-81
2023/10/08 10:12:26;;;;;;;8.87;8.20;;;21.40;99.90;;;;;;4888648;29;20519;-83
2023/10/08 10:14:57;;;;;;;10.13;9.17;;;21.30;99.90;;;;;;4886355;29;20475;-81
2023/10/08 10:17:28;;;;;;;10.00;9.27;;;21.30;99.90;;;;;;4888890;29;20451;-81
2023/10/08 10:20:13;;;;;;;9.53;8.90;;;21.20;99.90;;;;;;4882586;29;20466;-82
2023/10/08 10:22:45;;;;;;;8.83;8.23;;;21.20;99.90;;;;;;4889251;29;20582;-82
2023/10/08 10:25:17;;;;;;;11.17;10.23;;;21.20;99.90;;;;;;4884943;29;20498;-81
2023/10/08 10:28:23;;;;;;;8.73;8.23;;;21.20;99.90;;;;;;4882449;29;20495;-83
2023/10/08 10:30:53;;;;;;;12.00;9.27;;;21.40;99.90;;;;;;4878075;29;20486;-80
2023/10/08 10:33:21;;;;;;;9.07;8.30;;;21.60;99.90;;;;;;4879897;29;20930;-81
2023/10/08 10:35:52;;;;;;;11.37;8.37;;;22.00;99.90;;;;;;4880658;29;20897;-80
2023/10/08 10:38:26;;;;;;;8.90;8.07;;;22.20;99.90;;;;;;4879934;29;20507;-83
2023/10/08 10:40:57;;;;;;;8.90;8.10;;;22.30;99.90;;;;;;4878677;29;20922;-83
2023/10/08 10:43:32;;;;;;;11.10;7.43;;;22.40;99.90;;;;;;4881040;29;20459;-83
2023/10/08 10:46:24;;;;;;;9.27;8.37;;;22.60;99.90;;;;;;4865495;29;20483;-84
2023/10/08 10:49:04;;;;;;;8.40;7.67;;;22.80;99.90;;;;;;4879812;29;21022;-81
2023/10/08 10:51:34;;;;;;;11.73;9.00;;;22.90;99.90;;;;;;4878878;29;20476;-83
2023/10/08 10:54:07;;;;;;;8.93;8.33;;;23.20;99.90;;;;;;4879414;29;20218;-83
2023/10/08 10:56:42;;;;;;;8.23;7.80;;;23.50;99.90;;;;;;4876271;29;20455;-83
2023/10/08 10:59:18;;;;;;;10.00;8.80;;;23.70;99.90;;;;;;4882775;29;20494;-83
2023/10/08 11:01:52;;;;;;;12.40;9.60;;;23.90;99.90;;;;;;4873932;29;20559;-83
2023/10/08 11:04:28;;;;;;;10.23;9.23;;;24.20;99.90;;;;;;4875008;29;20462;-82
2023/10/08 11:06:58;;;;;;;9.73;8.73;;;24.50;99.90;;;;;;4881210;29;20463;-83
2023/10/08 11:09:37;;;;;;;13.53;11.63;;;24.60;99.90;;;;;;4882613;29;20488;-83
2023/10/08 11:12:10;;;;;;;14.57;9.90;;;24.60;99.90;;;;;;4879959;29;20475;-83
2023/10/08 11:14:42;;;;;;;10.20;9.40;;;24.50;99.90;;;;;;4883916;29;20451;-84
2023/10/08 11:17:12;;;;;;;12.20;9.03;;;24.30;99.90;;;;;;4878844;29;20452;-83
2023/10/08 11:19:42;;;;;;;9.80;9.20;;;24.10;99.90;;;;;;4878375;29;20572;-83
2023/10/08 11:22:16;;;;;;;11.33;10.40;;;24.00;99.90;;;;;;4880572;29;20451;-84
2023/10/08 11:24:47;;;;;;;10.50;9.60;;;23.80;99.90;;;;;;4876235;29;20459;-82
2023/10/08 11:27:28;;;;;;;9.77;9.00;;;23.80;99.90;;;;;;4879378;29;20460;-82
2023/10/08 11:29:57;;;;;;;9.70;9.00;;;23.70;99.90;;;;;;4878252;29;20975;-82
2023/10/08 11:32:29;;;;;;;10.37;9.37;;;23.70;99.90;;;;;;4878330;29;20895;-83
2023/10/08 11:34:59;;;;;;;12.27;11.20;;;23.70;99.90;;;;;;4881944;29;20538;-82
2023/10/08 11:37:28;;;;;;;11.23;10.13;;;23.60;99.90;;;;;;4881994;29;20488;-82
2023/10/08 11:39:58;;;;;;;10.20;7.93;;;23.60;99.90;;;;;;4882744;29;20464;-83
2023/10/08 11:42:40;;;;;;;13.23;10.10;;;23.50;99.90;;;;;;4882967;29;20520;-83
2023/10/08 11:45:26;;;;;;;13.90;8.43;;;23.50;99.90;;;;;;4877163;29;20471;-84
2023/10/08 11:48:03;;;;;;;9.93;9.03;;;23.50;99.90;;;;;;4882585;29;21714;-85
2023/10/08 11:50:31;;;;;;;9.87;9.07;;;23.60;99.90;;;;;;4878088;29;20909;-84
2023/10/08 11:53:02;;;;;;;10.17;9.27;;;23.70;99.90;;;;;;4878904;29;20506;-84
2023/10/08 11:55:35;;;;;;;10.97;10.17;;;23.70;99.90;;;;;;4861832;29;21302;-84
2023/10/08 11:58:09;;;;;;;10.23;9.20;;;23.70;99.90;;;;;;4872905;29;20484;-84
2023/10/08 12:00:44;;;;;;;10.53;9.60;;;23.80;99.90;;;;;;4875592;29;20521;-84
2023/10/08 12:03:17;;;;;;;9.87;8.90;;;23.90;99.90;;;;;;4872803;29;20465;-83
2023/10/08 12:05:58;;;;;;;12.07;8.40;;;23.80;99.90;;;;;;4871436;29;20463;-84
2023/10/08 12:08:28;;;;;;;9.57;8.60;;;23.80;99.90;;;;;;4878987;29;20567;-84
2023/10/08 12:11:00;;;;;;;11.43;10.17;;;23.90;99.90;;;;;;4879067;29;21268;-83
2023/10/08 12:13:28;;;;;;;10.80;10.00;;;24.00;99.90;;;;;;4882304;29;20986;-82
2023/10/08 12:16:06;;;;;;;10.93;9.67;;;24.00;99.90;;;;;;4880713;29;20821;-83
2023/10/08 12:18:39;;;;;;;10.47;9.67;;;24.10;99.90;;;;;;4879553;29;21223;-84
2023/10/08 12:21:10;;;;;;;11.77;9.50;;;24.20;99.90;;;;;;4880703;29;20472;-84
2023/10/08 12:23:40;;;;;;;8.80;8.20;;;24.30;99.90;;;;;;4883496;29;20481;-83
2023/10/08 12:26:09;;;;;;;13.07;9.47;;;24.30;99.90;;;;;;4882096;29;20514;-84
2023/10/08 12:28:37;;;;;;;7.97;7.40;;;24.30;99.90;;;;;;4885856;29;20514;-82
2023/10/08 12:31:05;;;;;;;9.30;7.37;;;24.30;99.90;;;;;;4885011;29;20463;-82
2023/10/08 12:33:34;;;;;;;7.90;7.20;;;24.20;99.90;;;;;;4883414;29;20484;-83
2023/10/08 12:36:10;;;;;;;11.50;8.17;;;24.30;99.90;;;;;;4882881;29;20460;-82
2023/10/08 12:38:42;;;;;;;8.80;8.00;;;24.30;99.90;;;;;;4898743;29;20520;-83
2023/10/08 12:41:13;;;;;;;8.20;6.83;;;24.30;99.90;;;;;;4882104;29;20524;-85
2023/10/08 12:43:44;;;;;;;9.83;7.23;;;24.40;99.90;;;;;;4885850;29;20464;-83
2023/10/08 12:46:19;;;;;;;9.63;7.60;;;24.40;99.90;;;;;;4885338;29;20575;-84
2023/10/08 12:48:52;;;;;;;9.83;7.37;;;24.50;99.90;;;;;;4882683;29;20551;-83
2023/10/08 12:51:24;;;;;;;6.97;6.30;;;24.50;99.90;;;;;;4880592;29;20464;-83
2023/10/08 12:53:58;;;;;;;8.10;6.23;;;24.60;99.90;;;;;;4878392;29;20535;-86
2023/10/08 12:56:35;;;;;;;7.03;6.27;;;24.60;99.90;;;;;;4881536;29;20470;-83
2023/10/08 12:59:06;;;;;;;10.80;6.10;;;24.60;99.90;;;;;;4884510;29;20471;-84
2023/10/08 13:01:36;;;;;;;8.80;5.77;;;24.60;99.90;;;;;;4883528;29;20447;-84
2023/10/08 13:04:13;;;;;;;10.20;6.10;;;24.50;99.90;;;;;;4876902;29;20481;-85
2023/10/08 13:06:45;;;;;;;7.13;5.90;;;24.50;99.90;;;;;;4877403;29;20542;-84
2023/10/08 13:09:13;;;;;;;5.33;5.00;;;24.50;99.90;;;;;;4878198;29;21184;-85
2023/10/08 13:11:42;;;;;;;9.60;5.63;;;24.50;99.90;;;;;;4881156;29;20491;-83
2023/10/08 13:14:12;;;;;;;6.20;5.43;;;24.50;99.90;;;;;;4880749;29;20526;-83
2023/10/08 13:16:41;;;;;;;6.50;5.83;;;24.50;99.90;;;;;;4882090;29;20475;-84
2023/10/08 13:19:09;;;;;;;10.13;7.07;;;24.50;99.90;;;;;;4883986;29;20488;-85
2023/10/08 13:21:37;;;;;;;11.30;6.63;;;24.50;99.90;;;;;;4880040;29;21129;-84
2023/10/08 13:24:09;;;;;;;8.23;5.87;;;24.70;99.90;;;;;;4882887;29;20868;-83